Date,TemperatureHighF,TemperatureAvgF,TemperatureLowF,DewpointHighF,DewpointAvgF,DewpointLowF,HumidityHigh,HumidityAvg,HumidityLow,PressureMaxIn,PressureMinIn,WindSpeedMaxMPH,WindSpeedAvgMPH,GustSpeedMaxMPH,PrecipitationSumIn
2013-1-1,43.2,40.7,38.3,41.0,34.5,26.5,92,79,60,30.06,29.91,5,0,5,0.53
2013-1-2,44.2,41.5,38.8,41.7,37.1,33.8,93,84,76,30.09,29.88,10,2,10,0.00
2013-1-3,42.1,38.8,30.6,37.1,33.8,24.7,89,82,70,30.21,30.03,12,2,12,0.00
2013-1-4,41.7,32.5,27.1,26.3,22.3,18.2,80,67,53,30.27,30.15,18,4,18,0.00
2013-1-5,45.7,35.3,26.8,29.4,23.0,17.5,75,61,51,30.27,30.12,12,2,12,0.00
2013-1-6,47.3,39.3,35.1,37.6,31.4,27.3,81,73,66,30.12,30.00,14,2,14,0.00
2013-1-7,62.6,36.9,32.7,43.8,25.0,20.3,72,62,48,30.30,30.12,21,3,21,0.00
2013-1-8,56.8,38.1,23.4,44.1,29.1,17.5,87,71,49,30.36,30.24,10,2,10,0.00
2013-1-9,54.5,50.2,46.2,51.4,46.8,41.3,95,88,78,30.39,30.30,6,1,6,0.00
2013-1-10,65.3,52.6,41.9,54.9,46.8,40.8,98,82,56,30.42,30.30,10,2,10,0.00
2013-1-11,59.7,54.5,50.0,58.1,52.9,46.8,97,94,86,30.30,30.12,11,2,11,0.26
2013-1-12,71.8,62.6,57.2,64.2,58.6,54.2,98,88,68,30.15,30.09,12,2,12,0.00
2013-1-13,69.3,62.9,57.7,59.1,56.0,54.1,91,79,60,30.12,30.06,18,4,18,0.08
2013-1-14,61.5,57.1,46.2,60.2,55.6,44.9,98,95,90,30.15,30.03,13,2,13,0.95
2013-1-15,55.9,50.5,46.4,55.1,49.6,45.0,98,97,94,30.12,30.00,7,2,7,0.87
2013-1-16,56.7,52.7,47.5,55.5,52.0,46.9,98,98,96,30.00,29.91,5,1,5,0.29
2013-1-17,53.2,43.9,34.0,52.7,42.8,29.9,98,96,85,30.12,29.77,21,3,21,1.95
2013-1-18,49.8,35.7,28.0,30.2,24.4,20.2,87,65,37,30.39,30.12,20,4,20,0.00
2013-1-19,56.7,38.0,23.9,32.6,24.7,19.8,89,62,29,30.36,30.09,12,2,12,0.00
2013-1-20,58.8,41.9,28.4,34.7,26.4,21.0,85,57,35,30.09,30.00,13,2,13,0.00
2013-1-21,54.7,38.0,25.3,30.0,20.5,8.2,89,53,30,30.06,29.91,16,3,16,0.00
2013-1-22,35.2,27.3,20.8,8.2,-6.1,-20.1,43,26,11,30.12,29.94,20,5,20,0.00
2013-1-23,47.1,31.5,0.0,22.0,9.2,-14.7,68,39,17,30.21,30.00,9,2,9,0.00
2013-1-24,41.9,32.8,22.8,27.7,9.1,-15.3,74,41,10,30.30,29.91,23,5,23,0.00
2013-1-25,33.1,26.9,21.2,27.2,12.8,-1.2,82,57,36,30.33,29.97,15,2,15,0.00
2013-1-26,33.1,33.1,33.1,26.7,26.7,26.7,77,77,77,30.00,30.00,1,1,2,0.00
2013-1-27,33.1,33.1,33.1,26.7,26.7,26.7,77,77,77,30.00,30.00,1,1,2,0.00
2013-1-28,64.8,39.4,33.1,45.6,31.9,26.7,86,75,49,30.21,30.00,12,1,12,0.00
2013-1-29,72.0,54.4,36.7,58.2,46.5,34.1,95,76,45,30.21,30.00,13,3,13,0.00
2013-1-30,63.9,59.5,46.0,60.9,56.2,41.5,97,89,75,30.00,29.53,30,6,30,2.82
2013-1-31,46.0,36.1,27.7,41.5,21.4,15.0,84,56,39,29.97,29.56,23,4,23,0.00
2013-2-1,42.8,28.5,20.1,28.4,11.6,3.4,79,49,35,30.24,29.85,27,5,27,0.00
2013-2-2,43.2,30.5,19.0,31.3,16.3,4.9,88,57,31,30.24,29.94,13,2,13,0.00
2013-2-3,48.0,36.8,29.3,31.7,22.7,15.5,87,58,40,29.97,29.83,23,5,23,0.00
2013-2-4,54.7,37.3,25.2,27.6,18.7,12.7,60,48,32,30.03,29.91,14,2,14,0.00
2013-2-5,60.3,42.6,29.8,36.5,26.5,17.7,76,54,37,29.97,29.85,12,2,12,0.00
2013-2-6,60.6,44.4,30.4,32.6,26.4,19.1,86,53,27,30.12,29.97,10,2,10,0.00
2013-2-7,41.5,41.2,40.3,39.5,25.0,20.1,95,55,42,30.12,29.97,3,0,3,0.38
2013-2-8,51.8,42.6,34.7,44.5,34.9,23.9,98,76,45,30.09,29.88,24,4,24,0.38
2013-2-9,58.5,41.0,30.2,27.4,19.4,-10.8,69,48,6,30.24,30.06,16,4,18,0.00
2013-2-10,51.1,43.2,33.1,45.9,25.8,18.7,96,52,38,30.30,30.09,13,2,13,0.37
2013-2-11,59.4,51.8,44.1,54.5,45.2,28.7,96,79,50,30.09,29.97,13,2,13,0.04
2013-2-12,52.7,45.8,39.9,37.2,25.9,19.8,88,47,31,30.06,29.88,16,3,16,0.08
2013-2-13,56.3,44.1,36.5,44.8,36.2,26.4,96,76,48,29.91,29.62,15,4,15,0.21
2013-2-14,55.9,41.1,32.2,31.9,25.7,21.1,69,55,37,30.00,29.85,16,3,16,0.00
2013-2-15,61.5,40.4,25.3,34.7,27.2,18.8,86,62,32,30.03,29.88,13,2,13,0.00
2013-2-16,36.9,31.5,23.4,25.2,18.4,6.2,90,59,41,29.97,27.61,27,4,27,0.00
2013-2-17,37.4,27.4,21.0,12.1,5.6,-5.6,48,40,17,27.93,27.70,30,8,30,0.00
2013-2-18,53.4,35.7,17.8,25.5,15.5,4.7,74,45,31,28.02,27.88,15,2,15,0.00
2013-2-19,55.8,43.6,35.4,41.2,23.5,8.8,85,47,28,27.88,27.61,24,4,24,0.04
2013-2-20,48.2,37.4,29.8,11.7,-2.6,-15.3,40,21,8,30.06,27.76,17,5,17,0.00
2013-2-21,63.0,41.8,23.9,33.3,3.4,-11.1,76,28,5,30.15,30.00,9,2,9,0.20
2013-2-22,41.0,38.3,35.2,38.6,33.1,28.1,96,82,67,30.18,30.03,10,2,10,0.30
2013-2-23,54.7,46.2,38.3,48.9,43.3,36.4,97,90,80,30.03,29.83,3,1,5,0.16
2013-2-24,58.5,45.5,33.1,41.2,29.4,18.6,94,57,27,30.00,29.83,9,3,15,0.00
2013-2-25,47.5,37.3,29.7,29.2,22.6,17.1,79,56,40,30.09,29.97,5,2,10,0.00
2013-2-26,41.9,36.9,32.5,40.0,34.1,25.4,98,90,69,29.97,29.56,5,2,11,1.20
2013-2-27,59.2,44.3,32.5,36.7,30.6,24.1,98,61,36,29.77,29.65,7,4,13,0.00
2013-2-28,44.2,36.8,32.5,30.4,22.2,18.0,73,56,44,29.85,29.71,11,5,18,0.00
2013-3-1,42.4,35.1,31.6,27.0,24.2,21.3,77,65,52,29.88,29.83,10,4,18,0.00
2013-3-2,40.5,33.8,27.9,29.7,22.7,14.2,89,65,46,29.88,29.80,11,5,18,0.00
2013-3-3,35.2,27.8,23.4,15.3,11.7,8.7,61,51,42,29.94,29.85,14,6,25,0.00
2013-3-4,55.0,37.4,24.8,21.2,11.9,-10.4,55,39,7,30.06,29.91,12,4,19,0.00
2013-3-5,54.0,43.5,34.9,46.4,33.7,19.9,95,69,49,30.00,29.65,9,2,18,0.71
2013-3-6,36.0,30.1,26.1,26.0,21.6,17.3,86,71,54,30.09,29.65,12,7,29,0.00
2013-3-7,46.6,33.6,28.0,27.4,22.4,20.1,79,64,45,30.21,30.06,11,6,23,0.00
2013-3-8,52.0,37.4,27.5,26.5,21.1,15.9,76,54,35,30.24,30.15,11,5,18,0.00
2013-3-9,62.8,43.8,23.5,32.6,23.0,14.5,76,47,26,30.27,30.18,7,2,12,0.00
2013-3-10,64.9,55.0,37.6,35.5,30.2,22.4,59,39,33,30.21,30.12,10,3,13,0.00
2013-3-11,57.6,51.9,48.6,51.6,45.0,29.6,94,79,41,30.12,29.83,9,4,13,0.62
2013-3-12,54.3,47.1,38.5,52.0,36.7,25.0,95,70,40,30.00,29.77,10,4,17,0.29
2013-3-13,48.7,38.6,29.3,28.7,21.5,11.9,79,51,35,30.12,29.97,13,5,21,0.00
2013-3-14,48.6,34.5,24.8,17.3,9.5,-11.9,51,38,8,30.21,30.09,11,5,20,0.00
2013-3-15,70.2,47.9,27.1,38.4,24.7,9.9,60,42,22,30.12,29.91,9,2,18,0.00
2013-3-16,77.7,64.0,44.2,44.9,39.2,32.4,71,41,26,29.94,29.80,9,4,18,0.00
2013-3-17,74.3,59.7,47.8,46.5,41.7,36.6,79,53,33,30.00,29.88,8,3,14,0.00
2013-3-18,48.9,42.7,38.5,43.5,38.8,34.5,97,86,74,30.03,29.83,9,4,9,0.41
2013-3-19,58.5,46.5,38.3,43.0,23.0,-12.3,98,51,6,30.03,29.85,7,2,7,0.00
2013-3-20,56.7,43.2,31.5,30.5,-5.7,-14.2,88,15,6,30.03,29.80,0,0,0,0.00
2013-3-21,38.7,30.2,22.3,23.6,12.3,6.4,75,48,33,29.88,29.77,0,0,0,0.00
2013-3-22,49.6,36.7,23.5,21.6,12.8,-3.6,48,38,19,29.97,29.88,0,0,0,0.00
2013-3-23,61.5,45.0,36.0,41.9,30.5,16.4,83,58,40,29.97,29.85,0,0,0,0.05
2013-3-24,46.2,42.4,38.3,41.2,38.2,35.5,96,85,68,29.88,29.53,0,0,0,0.66
2013-3-25,39.9,35.7,30.2,37.4,21.3,15.3,94,57,43,29.85,29.53,0,0,0,0.00
2013-3-26,40.3,32.5,28.0,24.0,21.2,18.6,77,64,49,30.12,29.83,0,0,0,0.00
2013-3-27,46.8,36.4,29.7,25.3,20.9,16.2,82,54,40,30.18,30.09,0,0,0,0.00
2013-3-28,54.9,39.1,26.6,25.5,18.1,13.5,61,44,26,30.21,27.93,6,0,9,0.00
2013-3-29,61.3,40.8,25.3,34.5,23.5,12.7,76,52,28,28.02,27.97,8,2,16,0.00
2013-3-30,63.5,50.4,40.3,45.5,37.7,33.5,88,64,42,27.97,27.82,6,2,10,0.12
2013-3-31,67.6,54.9,48.2,52.7,46.7,35.7,91,75,46,29.88,27.64,6,2,10,0.21
2013-4-1,65.5,53.5,38.3,50.7,39.8,30.2,93,63,37,29.97,29.88,10,4,22,0.04
2013-4-2,58.8,48.0,35.8,30.4,23.9,15.3,56,40,22,30.12,29.97,7,3,20,0.00
2013-4-3,60.6,49.6,38.1,27.3,19.5,9.5,36,30,19,30.21,30.09,6,3,12,0.00
2013-4-4,48.7,39.7,35.8,33.5,26.0,17.4,85,61,31,30.21,29.91,5,1,11,0.62
2013-4-5,59.2,46.7,37.6,42.0,35.6,29.9,89,68,41,30.06,29.88,9,4,16,0.00
2013-4-6,66.9,52.0,34.0,40.1,33.1,27.5,79,52,33,30.18,30.06,7,3,13,0.00
2013-4-7,70.5,58.4,45.5,43.2,35.4,27.1,52,42,36,30.18,30.09,9,3,13,0.00
2013-4-8,74.8,60.1,42.1,50.7,43.2,35.7,84,56,39,30.12,30.06,11,3,18,0.00
2013-4-9,80.1,65.5,47.5,54.7,48.7,41.8,83,57,40,30.21,30.12,7,2,12,0.00
2013-4-10,84.4,68.8,50.4,57.4,50.9,44.7,84,55,36,30.15,30.00,8,3,14,0.00
2013-4-11,77.0,68.0,59.7,62.9,53.0,47.8,87,60,42,30.00,29.77,13,3,22,0.50
2013-4-12,71.8,63.5,54.3,63.3,50.0,32.3,92,65,38,29.88,29.71,9,4,18,0.79
2013-4-13,71.4,58.7,48.0,40.0,33.9,30.0,54,40,24,30.06,29.88,9,4,16,0.00
2013-4-14,69.6,55.4,38.7,44.5,36.9,29.7,75,52,34,30.09,29.97,7,2,16,0.00
2013-4-15,67.3,58.1,52.2,56.0,51.4,43.3,91,79,64,30.18,29.97,5,2,10,0.12
2013-4-16,77.2,66.2,58.1,59.3,54.9,52.5,90,69,47,30.27,30.18,7,2,12,0.00
2013-4-17,76.5,63.8,55.6,62.1,57.1,52.0,90,79,56,30.27,30.15,5,1,8,0.29
2013-4-18,74.7,66.1,57.0,60.4,56.7,52.8,93,73,48,30.15,29.97,8,3,14,0.00
2013-4-19,67.8,61.2,44.8,62.5,56.0,32.5,91,83,62,29.97,29.80,10,6,18,0.50
2013-4-20,60.4,47.4,37.0,33.7,28.4,23.1,64,49,34,30.24,29.94,10,5,21,0.00
2013-4-21,62.1,47.6,32.4,35.3,30.0,25.0,79,53,35,30.36,30.24,7,2,15,0.00
2013-4-22,65.1,51.4,37.9,40.3,33.3,27.5,76,51,36,30.33,30.15,6,2,13,0.00
2013-4-23,71.6,53.4,33.4,44.5,35.6,26.0,76,53,35,30.24,30.09,6,2,12,0.00
2013-4-24,72.0,59.0,0.0,54.1,46.7,39.1,82,64,46,30.12,30.00,11,3,19,0.00
2013-4-25,68.5,54.5,41.7,45.0,27.4,-11.7,76,45,4,30.27,30.09,9,4,10,0.00
2013-4-26,67.3,54.4,37.4,38.4,31.6,23.2,64,43,33,30.36,30.27,7,2,12,0.00
2013-4-27,58.6,53.4,50.7,50.0,44.3,33.1,91,73,39,30.33,30.21,3,1,5,0.83
2013-4-28,53.6,51.3,47.5,51.7,49.0,44.4,96,92,89,30.21,30.00,5,1,9,1.82
2013-4-29,73.0,60.5,51.3,58.8,53.6,49.5,97,79,48,30.06,29.94,6,2,10,0.00
2013-4-30,74.5,61.0,49.5,60.5,53.0,47.4,95,77,49,30.15,30.00,7,2,13,0.00
2013-5-1,64.6,59.8,56.7,54.9,51.1,48.6,83,73,60,30.24,30.15,6,2,12,0.00
2013-5-2,64.8,57.7,54.3,55.9,52.6,50.2,91,83,72,30.24,30.21,6,2,12,0.00
2013-5-3,61.3,56.6,53.2,52.9,49.9,44.3,92,79,60,30.21,30.06,7,3,18,0.00
2013-5-4,56.3,50.9,47.8,48.0,44.5,37.0,91,79,65,30.06,29.94,10,4,20,0.42
2013-5-5,54.1,50.1,47.3,52.1,47.5,44.8,97,91,84,29.97,29.83,9,4,22,2.48
2013-5-6,65.5,56.6,45.3,52.8,47.2,40.4,96,73,45,29.88,29.80,8,3,16,0.00
2013-5-7,66.2,51.2,40.5,51.9,44.9,37.4,92,80,46,29.94,29.85,7,1,9,0.21
2013-5-8,70.9,56.9,47.8,56.7,51.7,46.5,96,84,56,30.06,29.91,6,1,12,0.05
2013-5-9,76.5,60.5,48.7,62.7,54.0,47.4,97,81,44,30.12,30.03,7,1,15,0.20
2013-5-10,77.5,64.2,50.7,62.6,54.3,49.1,96,73,46,30.12,30.00,12,2,18,0.00
2013-5-11,73.8,64.2,55.6,61.4,57.0,52.4,93,78,58,30.00,29.85,6,1,10,0.58
2013-5-12,64.0,56.3,44.6,54.2,40.4,27.3,87,58,36,30.06,29.91,11,4,19,0.00
2013-5-13,63.9,51.6,41.0,35.3,30.0,26.0,61,44,31,30.15,30.06,9,4,17,0.00
2013-5-14,73.0,55.0,34.7,45.7,37.3,26.4,78,54,35,30.21,30.09,6,2,12,0.00
2013-5-15,87.1,68.4,50.4,56.8,50.3,44.5,84,56,33,30.12,30.00,7,2,12,0.00
2013-5-16,78.4,65.5,53.1,57.8,51.6,47.8,85,63,42,30.09,30.00,4,1,8,0.00
2013-5-17,80.1,66.2,52.5,61.6,54.1,49.4,91,68,42,30.12,30.06,6,2,10,0.00
2013-5-18,67.6,64.1,60.1,62.6,59.8,53.6,94,86,69,30.12,30.09,0,0,0,1.12
2013-5-19,76.3,67.0,63.1,67.0,63.2,61.2,96,88,70,30.12,30.06,2,0,2,0.34
2013-5-20,81.5,68.6,61.0,67.6,63.6,59.5,97,85,58,30.12,30.06,5,1,10,0.00
2013-5-21,84.9,69.5,59.2,70.4,61.4,57.7,97,78,46,30.09,30.00,7,1,7,0.00
2013-5-22,79.9,67.7,59.7,72.3,62.6,57.3,95,84,61,30.06,29.91,8,2,9,0.87
2013-5-23,80.6,68.9,61.5,66.1,59.1,50.3,96,74,43,30.00,29.88,10,2,20,0.00
2013-5-24,66.6,60.3,51.6,51.7,43.8,33.2,78,56,38,30.21,29.94,13,6,24,0.00
2013-5-25,75.0,59.3,45.3,41.9,35.4,28.6,63,43,21,30.27,30.18,9,4,17,0.00
2013-5-26,74.3,60.4,51.3,51.5,44.4,34.7,80,57,37,30.24,30.15,7,2,12,0.04
2013-5-27,79.2,64.4,47.8,56.3,50.4,43.7,86,63,42,30.24,30.15,5,2,10,0.00
2013-5-28,81.3,69.3,55.8,61.6,55.8,51.6,89,65,42,30.24,30.18,6,2,13,0.00
2013-5-29,82.4,70.4,58.8,63.2,57.8,54.9,90,67,44,30.24,30.18,6,2,11,0.00
2013-5-30,81.3,68.9,0.0,64.6,58.2,54.0,92,70,48,30.27,30.18,7,2,10,0.00
2013-5-31,81.9,72.4,61.7,63.4,58.6,55.0,91,64,43,30.24,30.15,7,2,13,0.00
2013-6-1,81.1,72.4,0.0,63.8,60.2,56.5,85,66,47,30.15,30.06,7,2,15,0.00
2013-6-2,77.0,67.2,63.9,70.7,64.2,61.6,96,90,78,30.09,29.97,4,1,9,2.37
2013-6-3,80.4,69.3,0.0,68.3,62.7,56.9,97,80,50,30.03,27.76,6,2,11,2.37
2013-6-4,79.7,69.7,58.5,66.2,61.0,56.4,94,75,52,30.12,30.00,6,2,13,0.00
2013-6-5,78.3,70.2,64.8,66.5,63.5,60.0,93,80,65,30.12,30.00,6,2,10,0.20
2013-6-6,76.5,69.7,64.9,68.4,65.3,63.0,95,86,74,30.03,29.85,6,1,10,0.05
2013-6-7,81.3,68.6,63.0,69.1,64.4,60.3,96,87,60,29.88,29.77,6,2,15,2.94
2013-6-8,80.8,69.1,61.2,67.9,63.7,60.0,96,84,54,30.12,29.88,5,1,9,0.17
2013-6-9,80.6,68.8,61.9,71.9,65.5,60.7,96,90,71,30.18,30.09,6,2,13,0.62
2013-6-10,77.4,69.9,64.2,68.4,65.0,59.6,95,85,63,30.09,29.94,8,2,15,1.00
2013-6-11,82.8,71.9,63.1,66.9,62.3,58.6,96,74,47,30.09,30.00,8,2,14,0.04
2013-6-12,90.5,74.7,61.2,74.8,65.7,58.7,93,76,47,30.09,30.00,6,1,16,0.00
2013-6-13,90.7,74.8,66.6,67.1,63.2,56.5,92,70,35,30.00,29.83,9,3,21,0.00
2013-6-14,77.9,69.1,58.3,61.9,53.5,48.7,82,59,41,30.09,29.88,12,3,17,0.00
2013-6-15,82.6,67.4,52.0,59.0,54.5,48.5,89,66,42,30.18,30.09,4,1,8,0.00
2013-6-16,83.5,71.3,57.7,64.2,60.0,54.8,91,69,47,30.18,30.06,5,1,9,0.00
2013-6-17,80.2,72.6,66.6,69.4,65.8,62.6,93,80,65,30.09,30.00,6,1,10,0.62
2013-6-18,81.0,70.3,64.6,71.5,65.4,59.3,95,85,68,30.00,29.88,7,1,14,0.00
2013-6-19,78.6,69.7,60.4,65.5,62.1,58.3,94,78,61,30.15,29.97,4,1,9,0.00
2013-6-20,80.1,69.7,61.7,67.4,62.3,59.0,94,79,57,30.24,30.15,5,1,10,0.00
2013-6-21,82.0,70.3,60.6,65.8,61.1,57.3,95,75,46,30.30,30.21,5,1,11,0.00
2013-6-22,83.8,69.9,57.9,63.9,58.3,55.9,93,70,42,30.27,30.15,4,1,8,0.00
2013-6-23,82.6,70.5,59.0,68.7,62.7,56.4,92,77,54,30.24,30.15,6,1,9,0.00
2013-6-24,84.2,73.0,63.3,71.6,66.1,61.6,95,80,57,30.24,30.12,5,1,10,0.05
2013-6-25,84.0,71.8,65.1,71.0,66.1,62.9,95,83,58,30.21,30.09,5,1,8,0.03
2013-6-26,86.2,71.6,63.1,72.1,66.7,61.7,96,86,58,30.12,30.00,5,1,12,0.34
2013-6-27,85.8,72.6,65.3,74.5,68.2,63.8,96,87,63,30.03,29.85,6,1,10,0.41
2013-6-28,87.1,74.6,66.0,72.0,66.6,61.0,96,79,45,29.88,29.74,6,1,12,0.00
2013-6-29,84.4,72.6,62.8,67.3,61.0,57.2,96,70,43,29.80,29.74,4,1,9,0.05
2013-6-30,83.5,70.9,59.9,66.2,61.7,57.3,93,74,46,29.88,29.77,6,1,12,0.00
2013-7-1,81.5,71.0,65.3,68.5,64.9,62.7,94,82,61,30.00,29.85,7,2,15,1.28
2013-7-2,80.4,71.4,64.9,69.9,66.5,62.9,96,85,68,30.18,30.00,7,2,10,0.42
2013-7-3,76.6,68.8,62.1,72.8,66.3,60.9,97,92,86,30.27,30.15,9,2,13,2.78
2013-7-4,76.5,67.4,62.4,71.9,65.8,61.4,97,95,82,30.24,30.18,6,1,13,1.95
2013-7-5,82.6,71.5,66.7,70.7,66.9,64.0,96,86,58,30.27,30.21,7,2,14,0.25
2013-7-6,82.0,72.4,66.9,71.0,68.0,65.3,96,87,61,30.24,30.15,9,2,20,1.24
2013-7-7,81.7,73.7,68.0,71.8,68.8,66.5,96,85,68,30.21,30.12,6,2,11,0.21
2013-7-8,87.1,74.4,67.8,70.7,67.6,63.2,95,81,50,30.24,30.15,5,1,9,0.70
2013-7-9,87.4,74.7,67.3,72.3,68.4,63.1,96,82,50,30.21,30.12,6,1,10,0.21
2013-7-10,86.2,72.5,65.3,74.8,68.1,63.8,96,87,64,30.18,30.03,5,1,10,1.04
2013-7-11,79.3,71.5,66.9,72.3,68.0,65.7,97,89,70,30.03,29.94,5,0,6,0.00
2013-7-12,82.8,71.1,65.7,70.9,66.1,61.6,96,85,63,30.06,29.94,5,1,12,0.00
2013-7-13,75.6,69.2,63.3,67.9,64.5,60.2,94,85,73,30.15,30.06,4,1,9,0.00
2013-7-14,74.1,70.1,65.8,71.1,67.7,64.4,96,92,87,30.30,30.12,6,2,15,1.29
2013-7-15,83.5,73.6,67.5,71.6,67.5,64.8,96,83,56,30.36,30.30,6,1,9,0.00
2013-7-16,89.2,75.3,64.6,73.3,67.7,63.1,96,79,51,30.36,30.27,5,1,10,0.00
2013-7-17,87.6,73.7,66.2,75.4,68.4,63.4,95,85,59,30.33,30.21,4,1,12,0.12
2013-7-18,86.7,75.4,67.1,75.9,69.1,65.6,96,82,58,30.27,30.12,5,1,9,0.00
2013-7-19,89.1,75.7,66.9,73.7,68.6,65.1,96,80,51,30.18,30.06,6,1,10,0.00
2013-7-20,87.6,74.2,68.2,73.8,68.7,66.6,95,84,60,30.09,30.00,5,1,11,0.00
2013-7-21,85.8,72.3,67.6,74.3,68.2,65.5,95,87,63,30.09,30.00,4,1,9,0.16
2013-7-22,82.4,72.2,66.6,74.1,68.9,65.3,96,90,66,30.06,29.91,5,1,9,0.54
2013-7-23,85.8,73.9,66.6,69.8,66.8,64.2,95,80,52,29.97,29.88,7,2,17,0.05
2013-7-24,86.7,74.6,65.3,70.7,65.7,59.7,96,76,46,29.94,29.88,6,2,14,0.00
2013-7-25,87.1,72.9,64.6,69.0,63.8,57.9,94,76,40,30.09,29.94,5,1,10,0.00
2013-7-26,82.0,70.7,60.8,68.7,64.0,58.6,94,80,61,30.15,30.06,5,1,10,0.08
2013-7-27,81.1,72.3,66.4,72.1,67.2,64.0,95,85,62,30.09,29.94,4,1,9,1.33
2013-7-28,84.7,72.5,64.4,69.3,64.9,60.6,95,79,54,30.09,29.97,5,1,10,0.00
2013-7-29,83.8,69.9,59.7,64.8,59.3,55.4,94,72,43,30.24,30.06,4,1,9,0.00
2013-7-30,81.7,69.8,58.3,67.8,61.9,55.1,91,77,58,30.24,30.18,4,1,7,0.00
2013-7-31,76.8,70.5,66.7,70.0,67.0,64.5,95,89,77,30.21,30.03,4,0,6,0.20
2013-8-1,82.2,73.3,67.1,72.2,66.9,62.9,95,81,57,30.03,29.97,6,2,12,0.13
2013-8-2,83.8,73.0,63.0,69.5,65.4,60.9,94,78,56,30.09,30.00,4,1,9,0.00
2013-8-3,83.7,73.0,65.1,70.4,65.2,62.8,95,78,53,30.09,30.03,5,1,10,0.00
2013-8-4,80.8,72.0,63.9,69.7,63.2,58.4,94,75,51,30.09,30.03,8,2,16,0.00
2013-8-5,83.1,71.1,61.0,68.1,63.6,58.6,93,78,59,30.12,30.03,6,1,12,0.00
2013-8-6,84.4,73.5,68.7,69.5,67.2,63.3,93,82,52,30.12,30.00,5,1,8,0.00
2013-8-7,74.1,70.8,69.6,71.3,68.4,66.7,95,92,89,30.12,30.06,4,0,8,1.41
2013-8-8,82.2,72.4,66.6,74.6,69.6,65.7,97,91,75,30.12,30.06,4,1,8,0.21
2013-8-9,85.5,74.3,68.0,75.3,70.3,66.8,96,88,67,30.15,30.09,4,1,7,0.04
2013-8-10,84.9,72.3,66.9,76.2,69.4,65.7,97,91,70,30.18,30.12,5,1,11,0.33
2013-8-11,83.5,72.0,66.7,75.7,69.4,65.9,97,92,71,30.21,30.12,4,0,7,0.50
2013-8-12,85.5,71.8,65.8,76.0,68.4,65.0,97,90,66,30.15,30.03,5,1,7,0.33
2013-8-13,83.8,72.3,66.7,76.2,68.6,65.1,97,89,69,30.06,29.91,5,1,13,0.08
2013-8-14,78.8,69.4,65.1,66.3,61.7,55.9,94,78,51,30.12,29.97,7,2,13,0.00
2013-8-15,68.7,63.5,57.6,60.7,57.1,53.6,93,80,65,30.18,30.09,4,1,8,0.00
2013-8-16,73.6,63.5,55.9,60.4,57.3,54.1,95,81,61,30.18,30.12,5,1,10,0.00
2013-8-17,68.9,63.6,59.0,62.0,58.5,54.5,95,84,70,30.21,30.15,4,1,7,0.17
2013-8-18,79.2,67.7,62.2,69.6,64.3,60.8,96,89,71,30.24,30.15,5,1,9,0.17
2013-8-19,75.9,68.3,64.4,68.4,65.5,63.1,97,91,75,30.24,30.12,3,0,7,1.07
2013-8-20,80.6,69.6,61.9,70.9,65.9,61.0,97,89,68,30.24,30.15,5,1,8,0.00
2013-8-21,76.1,69.8,65.1,70.1,66.8,63.7,96,90,79,30.27,30.18,3,0,7,0.04
2013-8-22,85.5,73.1,65.5,72.3,66.9,63.8,96,83,55,30.21,30.09,5,1,9,0.00
2013-8-23,84.4,72.0,62.2,71.9,65.3,61.1,97,81,51,30.12,30.03,7,2,16,0.00
2013-8-24,79.2,69.3,59.0,65.7,60.9,55.1,94,76,48,30.33,30.12,5,2,13,0.00
2013-8-25,78.8,64.9,52.5,62.8,56.3,50.6,94,76,49,30.39,30.30,5,1,9,0.00
2013-8-26,81.3,66.3,55.4,64.5,59.1,53.4,95,79,53,30.36,30.18,6,1,10,0.00
2013-8-27,84.2,69.7,57.4,69.3,62.7,55.5,95,80,58,30.21,30.09,7,2,15,0.00
2013-8-28,85.5,74.4,65.1,72.1,66.9,62.9,94,79,55,30.12,30.00,6,2,15,0.00
2013-8-29,87.3,77.7,69.6,71.7,68.2,65.8,89,74,52,30.06,29.97,7,3,15,0.00
2013-8-30,81.5,73.2,69.3,72.3,68.7,66.8,94,86,69,30.12,30.00,5,1,10,0.17
2013-8-31,87.1,73.6,67.8,73.0,68.3,63.9,95,84,59,30.03,29.94,6,1,12,0.00
2013-9-1,86.2,71.9,65.7,74.3,67.8,64.2,96,88,63,29.97,29.88,6,1,13,0.67
2013-9-2,85.5,72.4,65.5,72.4,67.6,64.6,97,86,64,30.00,29.88,5,1,9,0.00
2013-9-3,83.1,71.2,63.3,68.2,63.7,60.6,96,79,50,30.06,29.91,8,2,25,0.12
2013-9-4,84.7,70.0,59.4,68.7,63.2,57.6,95,80,51,30.15,30.06,4,1,7,0.00
2013-9-5,84.7,69.7,58.8,66.6,60.3,56.2,95,75,41,30.18,30.12,6,1,10,0.00
2013-9-6,80.1,67.2,56.1,63.7,59.1,54.1,94,77,52,30.24,30.12,5,1,9,0.00
2013-9-7,83.1,67.5,58.3,66.5,60.8,56.6,96,81,53,30.18,30.06,5,1,8,0.00
2013-9-8,80.2,68.5,59.4,70.8,62.6,57.3,95,83,59,30.06,30.00,5,1,9,0.00
2013-9-9,85.3,71.5,62.2,71.2,64.7,60.5,96,81,54,30.18,30.06,5,1,10,0.00
2013-9-10,86.0,71.1,60.4,70.8,64.0,59.0,96,80,47,30.27,30.18,5,1,10,0.00
2013-9-11,83.8,70.7,62.6,73.6,66.2,60.5,96,86,62,30.27,30.15,5,1,8,0.04
2013-9-12,84.0,71.6,63.9,72.2,66.1,62.4,97,84,59,30.15,29.94,8,2,19,0.04
2013-9-13,78.1,68.2,57.4,63.5,57.2,47.2,93,71,43,29.97,29.88,8,3,19,0.00
2013-9-14,75.0,61.7,50.4,54.2,50.4,46.4,89,68,44,30.12,29.97,5,2,10,0.00
2013-9-15,76.8,62.7,50.9,62.0,55.7,48.1,93,79,55,30.21,30.12,6,1,10,0.00
2013-9-16,81.0,66.5,56.7,67.2,58.4,54.2,96,78,45,30.18,30.12,6,1,10,0.00
2013-9-17,70.7,64.3,59.7,61.6,55.3,50.8,87,73,56,30.30,30.18,6,2,10,0.00
2013-9-18,68.4,61.9,55.4,59.2,55.7,51.3,92,81,67,30.27,30.18,4,1,9,0.00
2013-9-19,80.1,67.6,60.6,66.0,61.9,58.3,94,83,59,30.21,30.12,4,1,8,0.00
2013-9-20,84.2,70.0,60.6,69.0,62.7,59.1,97,80,48,30.12,29.97,6,1,9,0.00
2013-9-21,68.7,64.4,61.3,65.6,62.0,59.6,96,92,88,29.97,29.77,6,1,10,1.29
2013-9-22,74.1,63.4,55.9,59.8,54.6,51.5,94,75,48,29.94,29.80,7,3,14,0.00
2013-9-23,75.0,62.7,53.6,59.5,55.6,51.9,95,79,54,30.09,29.94,6,1,10,0.00
2013-9-24,74.7,63.7,54.5,62.3,57.8,52.8,95,82,58,30.09,29.97,5,1,10,0.00
2013-9-25,63.5,61.4,59.2,61.1,59.5,57.5,96,93,91,29.97,29.88,4,0,6,0.16
2013-9-26,71.2,62.0,53.6,62.3,58.3,51.6,97,88,70,30.06,29.91,4,1,7,0.16
2013-9-27,75.4,59.9,48.2,62.3,54.4,46.8,97,83,59,30.18,30.06,5,1,9,0.00
2013-9-28,70.5,61.2,54.3,58.2,54.3,51.4,92,79,62,30.24,30.15,5,1,8,0.00
2013-9-29,72.7,61.1,53.1,57.1,53.8,50.1,93,78,56,30.18,30.06,5,1,8,0.00
2013-9-30,74.3,61.6,51.4,60.2,54.9,49.5,95,80,53,30.12,30.03,6,1,8,0.00
2013-10-1,77.2,62.8,52.9,64.6,56.9,51.6,96,82,53,30.18,30.09,5,1,9,0.00
2013-10-2,78.6,63.9,54.1,64.9,57.8,52.5,96,82,50,30.18,30.12,6,1,12,0.00
2013-10-3,80.8,65.7,57.6,65.9,59.3,55.8,96,82,52,30.18,30.12,6,1,12,0.00
2013-10-4,81.7,67.9,55.6,66.4,60.4,53.7,96,79,52,30.18,30.12,5,1,8,0.00
2013-10-5,83.3,67.2,57.9,70.0,60.6,56.4,97,81,51,30.18,30.09,5,1,8,0.00
2013-10-6,79.2,66.9,56.7,67.7,59.8,55.2,96,80,53,30.12,29.91,7,2,13,0.00
2013-10-7,66.9,61.5,55.8,62.7,55.5,48.0,95,81,60,30.03,29.85,8,3,20,1.29
2013-10-8,68.7,55.2,45.5,51.8,46.8,43.6,94,75,49,30.18,30.03,6,2,10,0.00
2013-10-9,73.6,55.8,42.6,51.2,46.3,40.6,93,73,45,30.21,30.12,4,1,6,0.00
2013-10-10,72.9,56.9,42.3,55.2,46.9,39.7,93,72,45,30.15,30.03,8,2,15,0.00
2013-10-11,75.4,61.3,49.1,56.5,50.8,46.0,91,71,44,30.06,29.97,9,3,18,0.00
2013-10-12,74.5,61.8,51.6,59.4,54.4,48.7,92,78,56,30.12,30.00,7,2,13,0.00
2013-10-13,70.3,63.2,58.5,62.8,59.6,55.9,94,88,73,30.24,30.12,4,1,9,0.00
2013-10-14,69.8,62.2,56.1,62.8,58.0,53.5,97,87,69,30.24,30.15,6,1,12,0.00
2013-10-15,68.5,60.1,55.4,58.8,55.9,53.4,95,86,71,30.18,30.06,4,1,7,0.00
2013-10-16,70.0,59.2,50.0,59.5,54.7,48.9,97,86,66,30.09,29.97,4,1,7,0.00
2013-10-17,70.3,62.7,57.0,64.7,59.8,53.2,96,90,81,30.00,29.88,6,1,14,0.04
2013-10-18,70.0,57.7,46.8,55.6,51.0,44.9,94,80,57,30.03,29.94,6,2,15,0.00
2013-10-19,64.8,56.6,47.5,56.3,51.0,43.6,95,82,54,29.97,29.85,5,1,8,0.00
2013-10-20,67.1,51.0,37.8,45.1,41.2,35.4,93,72,42,30.06,29.94,5,2,9,0.00
2013-10-21,68.4,51.3,37.0,51.8,44.0,34.1,92,77,52,30.12,30.00,7,1,12,0.00
2013-10-22,69.1,56.9,47.8,54.4,48.6,43.4,95,76,47,30.00,29.83,6,1,9,0.00
2013-10-23,58.1,47.4,38.5,45.3,34.6,23.3,91,64,40,30.00,29.77,11,4,21,0.00
2013-10-24,55.9,44.3,33.3,36.0,29.0,21.6,72,55,44,30.12,30.00,6,3,14,0.00
2013-10-25,48.6,39.0,28.8,30.8,23.8,18.9,69,55,41,30.27,30.12,9,4,18,0.00
2013-10-26,58.8,39.6,23.5,35.2,26.4,17.1,78,61,39,30.24,30.03,5,1,9,0.00
2013-10-27,67.6,54.6,42.1,45.5,40.0,32.6,79,59,45,30.12,30.00,6,2,13,0.00
2013-10-28,62.6,52.8,45.5,55.6,48.3,41.4,92,85,71,30.24,30.09,4,0,5,0.08
2013-10-29,70.5,56.4,45.9,56.7,49.1,44.5,96,79,47,30.30,30.21,5,1,9,0.00
2013-10-30,76.6,61.3,51.1,58.2,52.3,47.6,93,74,45,30.27,30.15,5,1,9,0.00
2013-10-31,66.2,62.2,57.6,59.6,54.2,49.9,87,76,60,30.18,29.88,7,2,13,0.00
2013-11-1,77.9,65.2,51.1,62.6,55.4,43.6,92,72,38,29.88,29.68,11,3,32,0.13
2013-11-2,63.7,51.3,43.3,45.4,38.3,30.9,82,63,44,29.97,29.80,10,3,20,0.00
2013-11-3,59.9,47.1,34.5,38.1,32.9,25.9,75,59,38,30.30,29.97,8,4,13,0.00
2013-11-4,57.4,43.0,30.0,36.4,28.2,24.2,82,59,38,30.39,30.27,6,2,12,0.00
2013-11-5,59.9,43.9,32.2,35.4,29.5,24.3,79,59,36,30.42,30.33,5,1,10,0.00
2013-11-6,68.4,55.4,44.6,51.1,45.3,34.3,87,70,49,30.36,30.12,6,2,11,0.00
2013-11-7,60.4,51.1,40.8,54.4,41.1,26.1,92,70,47,30.12,30.00,10,4,18,0.00
2013-11-8,54.0,42.0,30.2,26.6,21.6,14.1,56,45,26,30.24,30.12,9,4,22,0.00
2013-11-9,57.6,41.6,25.5,32.4,24.6,15.6,71,52,38,30.27,30.15,5,1,8,0.00
2013-11-10,66.6,50.8,36.5,38.1,29.3,22.5,60,45,29,30.21,30.12,8,3,17,0.00
2013-11-11,63.5,46.0,29.8,34.6,24.2,15.8,58,43,30,30.27,30.12,6,2,11,0.00
2013-11-12,54.5,37.3,24.4,33.7,22.0,7.7,66,54,40,30.36,30.03,12,5,20,0.00
2013-11-13,45.5,31.8,22.6,20.8,13.1,7.7,55,46,34,30.42,30.36,9,3,18,0.00
2013-11-14,61.2,36.9,19.0,30.0,16.2,8.9,67,46,19,30.36,30.24,5,2,9,0.00
2013-11-15,53.8,41.8,27.0,47.1,31.0,10.9,89,67,46,30.24,30.15,3,1,5,0.08
2013-11-16,61.2,54.3,49.1,53.5,50.2,46.0,93,86,73,30.21,30.12,6,1,10,0.04
2013-11-17,61.2,58.0,56.5,57.3,54.5,51.8,96,88,82,30.18,29.91,6,2,10,0.25
2013-11-18,65.1,57.3,46.0,59.3,40.9,25.9,97,57,37,30.03,29.88,12,5,21,0.00
2013-11-19,55.6,44.9,37.9,29.4,23.8,19.6,51,43,36,30.18,30.00,11,4,18,0.00
2013-11-20,51.6,41.6,30.9,27.7,22.6,17.5,59,47,37,30.36,30.18,6,2,12,0.00
2013-11-21,48.7,44.9,40.6,46.5,34.5,23.9,92,68,51,30.39,30.30,3,1,4,0.04
2013-11-22,67.6,57.5,48.2,58.7,53.4,45.9,95,86,72,30.33,30.12,5,1,7,0.09
2013-11-23,58.1,47.6,33.1,53.3,37.8,15.8,90,69,50,30.18,30.09,12,5,29,0.00
2013-11-24,35.4,27.5,20.3,16.3,9.1,3.6,52,46,36,30.36,30.15,10,5,19,0.00
2013-11-25,39.7,29.6,18.0,18.1,9.9,2.9,57,44,32,30.36,30.21,5,2,9,0.00
2013-11-26,45.7,38.3,31.3,43.4,33.2,17.2,93,82,52,30.21,29.65,8,2,16,2.23
2013-11-27,44.4,31.1,23.7,41.1,22.8,10.1,88,72,55,30.09,29.65,15,8,35,0.04
2013-11-28,51.1,31.1,18.9,27.1,15.9,8.8,68,54,32,30.36,30.09,9,3,17,0.00
2013-11-29,57.4,36.5,22.8,32.3,21.5,16.0,77,57,36,30.44,30.33,5,1,8,0.04
2013-11-30,49.1,33.5,22.6,27.0,19.3,15.0,76,57,40,30.48,30.24,5,1,8,0.00
2013-12-1,61.2,38.3,23.7,38.7,25.1,16.1,76,60,40,30.24,29.97,5,1,8,0.00
2013-12-2,57.2,42.8,27.7,38.9,31.9,21.7,81,66,50,29.97,29.80,3,1,5,0.00
2013-12-3,59.7,50.2,42.8,48.5,43.5,36.3,89,78,64,29.94,29.83,5,1,9,0.00
2013-12-4,66.6,56.6,50.4,56.0,51.9,48.0,93,85,66,30.06,29.91,7,1,12,0.00
2013-12-5,71.1,62.4,55.6,63.2,58.8,52.4,94,88,71,30.09,30.00,6,1,10,0.30
2013-12-6,70.2,65.7,54.1,63.6,61.0,51.8,96,85,74,30.09,29.97,11,4,21,0.95
2013-12-7,54.0,46.0,41.0,52.0,41.2,36.4,94,83,70,30.30,30.03,8,3,15,0.00
2013-12-8,43.7,38.1,35.4,38.9,35.4,33.3,96,90,83,30.30,30.12,5,2,9,0.29
2013-12-9,55.6,48.5,36.7,53.9,46.9,35.4,97,94,89,30.15,30.00,5,1,11,0.50
2013-12-10,48.4,41.2,28.8,46.0,33.2,15.7,97,75,54,30.24,29.88,11,4,22,0.20
2013-12-11,53.4,35.0,21.6,28.4,20.3,15.7,80,57,37,30.33,30.21,6,2,9,0.00
2013-12-12,41.7,32.7,24.1,18.8,12.5,-2.4,57,44,21,30.30,30.21,8,4,16,0.00
2013-12-13,52.9,34.6,19.4,27.0,16.0,7.4,63,47,34,30.27,30.15,5,1,7,0.00
2013-12-14,43.7,40.2,36.1,40.6,31.1,19.6,92,72,45,30.18,29.77,5,1,7,0.71
2013-12-15,44.2,37.0,29.5,42.7,29.3,21.2,95,74,59,30.06,29.74,10,5,20,0.00
2013-12-16,58.5,38.1,23.9,35.2,25.1,19.2,85,62,35,30.12,30.03,6,1,9,0.00
2013-12-17,62.8,42.9,25.9,38.1,26.0,17.8,81,55,28,30.09,29.91,9,4,21,0.00
2013-12-18,49.3,36.3,26.4,20.0,12.7,-10.3,52,40,9,30.24,30.03,11,4,18,0.00
2013-12-19,65.1,41.8,22.8,36.5,20.7,8.5,62,44,29,30.24,30.12,6,2,11,0.00
2013-12-20,66.6,52.7,44.2,45.1,30.9,21.3,70,44,29,30.15,30.09,7,2,11,0.00
2013-12-21,65.3,59.5,55.4,61.2,54.0,44.8,92,82,68,30.12,30.00,12,3,21,0.21
2013-12-22,66.0,60.4,56.8,61.8,57.6,54.7,96,91,79,30.06,29.94,12,3,23,2.32
2013-12-23,57.4,48.3,34.5,56.2,44.1,28.4,97,86,71,30.18,30.00,8,3,18,0.25
2013-12-24,36.5,30.8,21.7,28.7,19.0,9.3,79,62,49,30.30,30.15,9,5,16,0.00
2013-12-25,40.6,26.7,16.2,19.5,13.0,9.4,76,57,41,30.36,30.24,5,2,8,0.00
2013-12-26,51.4,32.4,20.7,27.4,17.5,9.7,72,55,38,30.27,30.15,8,2,12,0.00
2013-12-27,54.5,33.4,21.4,30.5,19.9,13.9,77,59,38,30.36,30.24,5,1,6,0.00
2013-12-28,44.8,33.5,21.6,34.8,24.5,14.0,86,70,54,30.33,30.03,0,0,0,0.25
2013-12-29,55.9,43.6,37.6,47.0,37.3,30.3,94,80,61,30.03,29.80,0,0,0,0.74
2013-12-30,47.1,42.6,35.6,37.1,33.7,29.4,79,71,62,30.06,27.82,4,0,4,0.00
2014-1-1,47.5,38.9,31.1,25.5,22.9,20.9,71,53,40,30.15,30.06,0,0,0,0.00
2014-1-2,46.6,35.1,19.8,42.9,28.8,11.8,88,78,57,30.06,29.65,0,0,0,0.00